Tin City LRRS, AK

1:12 AM AKDT on September 19, 2014 (GMT -0800)
Tin City LRRS | Change Station
CLOSE
Current Station
Airport
Location: Tin City,
Elevation: 272 ft
Nearby Weather Stations

Elev 272 ft 65.56 °N, 167.92 °W | Updated 17 minutes ago

Light Rain
Light Rain Mist
41 °F
Feels Like 29 °F
N
40
Wind Variable Wind from NNE
Gusts 45 mph

Today
High -- | Low -- °F
--% Chance of Precip.
Yesterday
High -- | Low -- °F
Precip. -- in
8:45 AM 9:23 PM
Waning Crescent, 20% visible
Pressure 29.42 in
Visibility 1.5 miles
Clouds Overcast 500 ft
Windchill 29 °F
Dew Point 41 °F
Humidity 98%
Rainfall 0.01 in
Snow Depth Not available.
UV 0 out of 12
Pollen Not available.
Air Quality Not available.
Flu Activity Not available.
METAR PATC 190855Z AUTO 02035G39KT 1 1/2SM -RA BR OVC005 05/05 A2942 RMK AO2 PK WND 02039/0837 SHRAB0755E0759DZB0759E0830 SLP963 P0001 60002 T00520049 400690042 57007

More Conditions Fewer Conditions

Pressure 29.42 in
Visibility 1.5 miles
Clouds Overcast 500 ft
Windchill 29 °F
Dew Point 41 °F
Humidity 98%
Rainfall 0.01 in
Snow Depth Not available.
UV 0 out of 12
Pollen Not available.
Air Quality Not available.
Flu Activity Not available.
METAR PATC 190855Z AUTO 02035G39KT 1 1/2SM -RA BR OVC005 05/05 A2942 RMK AO2 PK WND 02039/0837 SHRAB0755E0759DZB0759E0830 SLP963 P0001 60002 T00520049 400690042 57007

More Conditions Fewer Conditions

10-Day Weather Forecast

Almanac

Astronomy

Sep. 19, 2014 Rise Set
Actual Time 8:45 AM AKDT 9:23 PM AKDT
Civil Twilight 7:54 AM AKDT 10:13 PM AKDT
Nautical Twilight 6:50 AM AKDT 11:17 PM AKDT
Astronomical Twilight 5:32 AM AKDT 12:33 AM AKDT
Moon 3:23 AM AKDT 8:04 PM AKDT
Length of Visible Light 14h 19m
Length of Day
12h 37m
Tomorrow will be 6m 52s shorter.
Waning Crescent, 20% of the Moon is Illuminated
Today
Waning Crescent
Sep 24
New
Oct 1
First Quarter
Oct 8
Full
Oct 15
Last Quarter

Today's Extremes

State Highs State Lows

Community

WunderPhotos

Upload Photos

1,754,583 photos uploaded!

Nearby

Snow Depth

Station Depth Elevation
Pargon Creek 0 in 300 ft
Susitna Valley High 109 in 375 ft
Fort Yukon 1 in 430 ft
Moraine 0 in 2100 ft
Upper Tsaina River 0 in 1750 ft

Earthquake Activity

City Distance Mag. Time & Date
No recent earthquake activity has been reported nearby.
Minimum magnitude displayed is 2.5.

Coastal Water Temperatures

Place Temperature
No Stations Reporting

Nearby Weather Stations